»·PEaware :: N741SG KSNA-KRNM

N741SG :: KSNA-KRNM

FLIGHT INFORMATION

Flight Status: Arrived
Operator: Privately registered:
United States
More flights under this callsign
Pilot: Carl R. (23234)
Aircraft: BEECH AIRCRAFT BARON
(BE58)
More flights by this aircraft type
Origin: KSNA John Wayne-Orange Co
United States
Destination: KRNM Ramona
United States
More flights between these airports :: More routes between these airports
Route: V23 OCN V208 JLI
File this flight plan on PilotEdge
Remarks: I-4 Rating
Altitude:
(Current/Filed)
7,000ft
Speed:
(Current/Filed)
160kts
Departed: 04-Feb-19 10:33 AM
Arrived: 04-Feb-19 11:01 AM
Distance/Time
Traveled:
61nm/0:28
Distance/Time
To Go:
Arrived

Flight Plot

Page will automatically refresh every two minutes.


Map Options




Map Legend


Flown Route
Filed Route
Departure Airport
Arrival Airport
Navaid (VOR, NDB)
Fix

Horizontal Profiles

Position Reports

Time Latitude Longitude Heading Altitude Ground
Speed
04-Feb-19 10:12 33.676088 -117.870901 219 60ft 0kts
04-Feb-19 10:13 33.676088 -117.870901 219 60ft 0kts
04-Feb-19 10:14 33.676088 -117.870901 219 60ft 0kts
04-Feb-19 10:15 33.676088 -117.870901 219 60ft 0kts
04-Feb-19 10:16 33.676088 -117.870901 219 60ft 0kts
04-Feb-19 10:17 33.676088 -117.870901 219 60ft 0kts
04-Feb-19 10:18 33.676088 -117.870901 219 60ft 0kts
04-Feb-19 10:19 33.676088 -117.870901 219 60ft 0kts
04-Feb-19 10:20 33.676088 -117.870901 219 60ft 0kts
04-Feb-19 10:21 33.676088 -117.870901 219 60ft 0kts
04-Feb-19 10:23 33.676088 -117.870901 219 60ft 0kts
04-Feb-19 10:24 33.676088 -117.870901 219 60ft 0kts
04-Feb-19 10:25 33.676088 -117.870901 219 60ft 0kts
04-Feb-19 10:26 33.676065 -117.870921 210 60ft 1kts
04-Feb-19 10:27 33.675920 -117.870834 130 60ft 0kts
04-Feb-19 10:28 33.675684 -117.870472 117 60ft 3kts
04-Feb-19 10:29 33.678711 -117.868408 26 60ft 16kts
04-Feb-19 10:30 33.681251 -117.866450 137 60ft 0kts
04-Feb-19 10:31 33.681251 -117.866450 137 60ft 0kts
04-Feb-19 10:32 33.680342 -117.865882 207 60ft 21kts
04-Feb-19 10:33 33.655515 -117.877953 185 887ft 132kts
04-Feb-19 10:34 33.620344 -117.884266 185 2374ft 122kts
04-Feb-19 10:35 33.588650 -117.888616 185 3861ft 110kts
04-Feb-19 10:36 33.562678 -117.879473 110 5170ft 129kts
04-Feb-19 10:37 33.560022 -117.835033 102 6322ft 135kts
04-Feb-19 10:38 33.557198 -117.787786 105 7033ft 163kts
04-Feb-19 10:39 33.525562 -117.750485 144 7015ft 170kts
04-Feb-19 10:40 33.492221 -117.711523 143 7015ft 168kts
04-Feb-19 10:40 33.464060 -117.678496 143 7015ft 170kts
04-Feb-19 10:42 33.424967 -117.632709 143 7047ft 169kts
04-Feb-19 10:43 33.390716 -117.592677 143 7051ft 173kts
04-Feb-19 10:43 33.361834 -117.558941 143 7050ft 174kts
04-Feb-19 10:44 33.326703 -117.517951 143 7051ft 176kts
04-Feb-19 10:46 33.285477 -117.469875 143 7051ft 178kts
04-Feb-19 10:47 33.249835 -117.428378 143 7051ft 178kts
04-Feb-19 10:47 33.236148 -117.379247 103 7043ft 193kts
04-Feb-19 10:48 33.228746 -117.315597 104 7037ft 191kts
04-Feb-19 10:50 33.220210 -117.243329 105 6435ft 180kts
04-Feb-19 10:50 33.214374 -117.194377 106 5917ft 178kts
04-Feb-19 10:51 33.207337 -117.135557 107 5410ft 177kts
04-Feb-19 10:52 33.176235 -117.111065 187 4878ft 141kts
04-Feb-19 10:53 33.137589 -117.118184 192 4400ft 140kts
04-Feb-19 10:54 33.099547 -117.126579 191 4054ft 136kts
04-Feb-19 10:55 33.068991 -117.107565 116 3664ft 157kts
04-Feb-19 10:56 33.060216 -117.057565 108 3467ft 139kts
04-Feb-19 10:57 33.054016 -117.016249 109 3194ft 138kts
04-Feb-19 10:58 33.047668 -116.972193 109 2361ft 106kts
04-Feb-19 10:59 33.042640 -116.938798 108 1782ft 102kts
04-Feb-19 11:00 33.039346 -116.915076 25 1399ft 11kts
04-Feb-19 11:01 33.039768 -116.914721 92 1399ft 6kts
04-Feb-19 11:02 33.039776 -116.911594 70 1399ft 9kts
04-Feb-19 11:03 33.040385 -116.910578 233 1399ft 0kts
04-Feb-19 11:04 33.040385 -116.910578 233 1399ft 0kts

Navigation Log

Ident Type
Flight plan parsing failed, navigation log unavailable